Horton, Michigan
Current Conditions -  °F | °C
As of 11:56 PM on Friday 21 Nov 2014 (Local Time) from KJXN Reporting Station
Clear Clear  
Wind Chill: 11°   Ceiling: Unl
Heat Index: 23°   Visibility: 10mi
Dew Point: 10°   Wind: 13mph
Humidity: 58%   Direction: 200°SSW
Pressure: 30.28"   Gusts: NA
Location:  42.15°N, 84.52°W
Report Text: KJXN 220456Z 20011KT 10SM CLR M05/M12 A3028 RMK AO2 SLP269 T10501122 410331111
Loading
Personal Weather Stations






























Interactive Weather Map New forecast layout! Learn more

10-Day Weather Forecast

Advertisements
Track Severe Weather on mobile